Weather observations for the past three days for
Brownwood, Brownwood Regional Airport
Imperial (Metric)
Date Time (cdt) Wind (mph) Vis. (mi.) Weather Sky Cond. Temperature (ºF) Relative Humidity Wind Chill (°F) Heat Index (°F) Pressure Precipitation (in)
Air Dwpt 6 hour altimeter (in) sea level (mb) 1 hr 3 hr 6 hr
Max. Min.
04 22:35 S 12 10.00 Fair CLR 73.8 64.4 73% 29.74 0.0
04 22:15 S 10 10.00 A Few Clouds FEW280 74.5 64.2 70% 29.73 0.0
04 21:35 S 12 10.00 Fair CLR 75.2 64.8 70% 77 29.72 0.0
04 21:15 S 10 10.00 Fair CLR 75.4 64.9 70% 77 29.72 0.0
04 20:55 S 10 10.00 Fair CLR 76.1 65.1 69% 78 29.72 0.0
04 20:35 S 10 10.00 Fair CLR 77.4 64.9 66% 79 29.71 0.0
04 20:15 S 12 10.00 Fair CLR 78.6 65.3 64% 81 29.7 0.0
04 19:55 S 10 10.00 Fair CLR 79.2 65.3 63% 81 29.7 0.0
04 19:35 S 10 10.00 Fair CLR 80.2 65.1 60% 82 29.71 0.0
04 19:15 S 13 10.00 Fair CLR 81.3 65.1 58% 83 29.71 0.0
04 18:55 S 12 10.00 Fair CLR 82.2 65.3 57% 84 29.72 0.0
04 18:35 S 14 10.00 Partly Cloudy SCT240 83.3 64.6 53% 85 29.72 0.0
04 18:15 S 14 10.00 Overcast BKN230 OVC250 83.8 64.6 52% 85 29.73 0.0
04 17:55 S 15 10.00 Partly Cloudy SCT220 82 64.2 55% 84 29.73 0.0
04 17:35 S 12 G 23 10.00 Fair CLR 83.8 65.1 53% 86 29.73 0.0
04 17:15 S 15 G 22 10.00 Fair CLR 84.7 65.1 52% 87 29.74 0.0
04 16:55 S 14 10.00 Fair CLR 84 64.9 53% 86 29.74 0.0
04 16:35 S 14 10.00 Fair CLR 83.7 64.8 53% 85 29.75 0.0
04 16:15 S 12 10.00 A Few Clouds FEW250 83.8 64.8 53% 86 29.76 0.0
04 15:55 S 14 10.00 A Few Clouds FEW260 82.9 64.6 54% 85 29.77 0.0
04 15:35 S 14 10.00 A Few Clouds FEW300 82.2 64.4 55% 84 29.78 0.0
04 15:15 S 18 10.00 Fair CLR 82.2 63.5 53% 84 29.79 0.0
04 14:55 SW 15 G 20 10.00 A Few Clouds FEW280 81.9 63.3 53% 83 29.81 0.0
04 14:35 S 14 10.00 Partly Cloudy FEW280 SCT370 81.1 62.6 53% 82 29.82 0.0
04 14:15 SW 16 G 22 10.00 A Few Clouds FEW280 81.7 62.6 52% 83 29.82 0.0
04 13:55 SW 16 G 24 10.00 A Few Clouds FEW360 81 63.5 55% 82 29.83 0.0
04 13:35 SW 14 G 23 10.00 A Few Clouds FEW350 80.6 63.1 55% 82 29.84 0.0
04 13:15 SW 14 G 20 10.00 A Few Clouds FEW350 80.1 63.5 57% 82 29.85 0.0
04 12:55 S 16 G 23 10.00 A Few Clouds FEW310 78.4 62.1 57% 80 29.86 0.0
04 12:35 SW 14 10.00 A Few Clouds FEW320 77.2 61.9 59% 79 29.87 0.0
04 12:15 SW 14 10.00 A Few Clouds FEW360 76.1 61.3 60% 78 29.87 0.0
04 11:55 S 14 G 28 10.00 A Few Clouds FEW330 75.2 61.2 62% 77 29.88 0.0
04 11:35 SW 16 G 23 10.00 Fair CLR 74.3 60.8 63% 29.88 0.0
04 11:15 SW 17 G 24 10.00 Fair CLR 73.8 60.4 63% 29.9 0.0
04 10:55 S 17 10.00 Fair CLR 72 60.4 67% 29.9 0.0
04 10:35 SW 15 10.00 Fair CLR 70 59.5 70% 29.9 0.0
04 10:15 S 17 10.00 Fair CLR 69.6 59.5 70% 29.91 0.0
04 09:55 SW 18 10.00 Fair CLR 68 58.8 73% 29.91 0.0
04 09:35 S 15 10.00 Fair CLR 65.8 58.6 78% 29.92 0.0
04 09:15 S 14 10.00 Fair CLR 64.9 57.9 78% 29.92 0.0
04 08:55 S 10 10.00 Fair CLR 63.3 57.7 82% 29.92 0.0
04 08:35 S 9 10.00 Fair CLR 61.3 56.5 84% 29.92 0.0
04 08:15 S 12 10.00 Fair CLR 59.9 55.9 87% 29.92 0.0
04 07:55 S 10 10.00 Fair CLR 59 55.2 87% 29.92 0.0
04 07:35 S 9 10.00 Fair CLR 58.1 54.7 88% 29.91 0.0
04 07:15 S 8 10.00 Fair CLR 56.8 54 90% 29.9 0.0
04 06:55 S 8 10.00 Fair CLR 56.5 53.6 90% 29.9 0.0
04 06:35 S 8 10.00 Fair CLR 56.7 53.4 89% 29.9 0.0
04 06:15 S 7 10.00 Fair CLR 56.3 52.9 88% 29.9 0.0
04 05:55 S 6 10.00 Fair CLR 55 52.3 91% 29.91 0.0
04 05:35 SE 5 10.00 Fair CLR 55.8 52.2 88% 29.91 0.0
04 05:15 S 6 10.00 Fair CLR 56.5 52 85% 29.91 0.0
04 04:55 S 6 10.00 Fair CLR 56.7 51.8 84% 29.92 0.0
04 04:35 S 7 10.00 Fair CLR 57 51.4 82% 29.92 0.0
04 04:15 S 8 10.00 Fair CLR 56.8 51.1 81% 29.92 0.0
04 03:55 S 6 10.00 Fair CLR 56.5 50.7 81% 29.93 0.0
04 03:35 S 5 10.00 Fair CLR 56.5 50.4 80% 29.94 0.0
04 03:15 SE 5 10.00 Fair CLR 56.5 49.6 78% 29.94 0.0
04 02:55 S 3 10.00 Fair CLR 55.8 50.2 82% 29.94 0.0
04 02:35 SE 3 10.00 Fair CLR 57.7 49.8 75% 29.94 0.0
04 02:15 S 6 10.00 Fair CLR 58.3 49.8 74% 29.95 0.0
04 01:55 S 3 10.00 Fair CLR 59.2 49.6 71% 29.96 0.0
04 01:35 S 3 10.00 Fair CLR 58.5 50 74% 29.96 0.0
04 01:15 S 5 10.00 Fair CLR 58.5 50.2 74% 29.97 0.0
04 00:55 S 5 10.00 Fair CLR 59.9 50.4 71% 29.98 0.0
04 00:35 S 5 10.00 Fair CLR 60.8 50.5 69% 29.99 0.0
04 00:15 S 5 10.00 Fair CLR 61 50.7 69% 29.99 0.0
03 23:55 S 7 10.00 Fair CLR 61.7 50.7 67% 29.99 0.0
03 23:35 S 6 10.00 Fair CLR 61.9 50.7 67% 30 0.0
03 23:15 S 6 10.00 Fair CLR 62.6 50.5 65% 30 0.0
03 22:55 S 7 10.00 A Few Clouds FEW280 63.9 50.2 61% 30 0.0
03 22:35 S 7 10.00 A Few Clouds FEW280 64.2 50.5 61% 30.01 0.0
03 22:15 S 7 10.00 Partly Cloudy SCT260 SCT310 64.4 50.7 61% 30 0.0
03 21:55 S 7 10.00 Partly Cloudy SCT260 65.1 50.9 60% 30 0.0
03 21:35 S 7 10.00 A Few Clouds FEW280 64.9 50.7 60% 29.99 0.0
03 21:15 S 6 10.00 Fair CLR 65.3 50.5 59% 29.99 0.0
03 20:55 SE 5 10.00 Fair CLR 66 50.4 57% 29.99 0.0
03 20:35 S 6 10.00 Fair CLR 66.9 50.2 55% 29.99 0.0
03 20:15 S 6 10.00 Fair CLR 68.2 50.2 53% 29.99 0.0
03 19:55 S 7 10.00 Fair CLR 70 49.8 49% 29.98 0.0
03 19:35 S 7 10.00 Fair CLR 70.7 49.1 46% 29.99 0.0
03 19:15 S 7 10.00 A Few Clouds FEW270 72.9 47.1 40% 29.99 0.0
03 18:55 S 6 10.00 Partly Cloudy SCT270 73.6 48.6 41% 30 0.0
03 18:35 S 13 10.00 Fair CLR 73.8 45.9 37% 30 0.0
03 18:15 S 14 10.00 Fair CLR 75.7 46.6 36% 78 30 0.0
03 17:55 S 12 10.00 Fair CLR 75.2 47.8 38% 77 30.01 0.0
03 17:35 S 10 10.00 A Few Clouds FEW280 77.5 47.1 34% 78 30.01 0.0
03 17:15 S 13 10.00 Fair CLR 77.2 45.9 33% 78 30.02 0.0
03 16:55 S 14 10.00 A Few Clouds FEW320 77 45 32% 78 30.03 0.0
03 16:35 S 13 G 20 10.00 Fair CLR 77.2 46.2 33% 78 30.04 0.0
03 16:15 S 10 10.00 Fair CLR 76.8 45.1 33% 78 30.05 0.0
03 15:55 S 12 10.00 Fair CLR 77.4 45.3 32% 78 30.06 0.0
03 15:35 SW 13 10.00 Fair CLR 77.7 42.3 28% 78 30.07 0.0
03 15:15 SW 14 10.00 Fair CLR 77.5 42.3 28% 78 30.08 0.0
03 14:55 SW 14 G 18 10.00 Fair CLR 77.9 44.4 31% 78 30.09 0.0
03 14:35 SW 13 G 17 10.00 Fair CLR 77.5 44.1 30% 78 30.1 0.0
03 13:55 S 15 G 18 10.00 Fair CLR 76.5 45 33% 78 30.12 0.0
03 13:35 S 13 G 20 10.00 Fair CLR 76.6 45.3 33% 78 30.13 0.0
03 13:15 SW 14 10.00 Fair CLR 76.1 45 33% 78 30.14 0.0
03 12:55 S 9 G 17 10.00 Fair CLR 75.7 45.9 35% 77 30.15 0.0
03 12:35 S 13 G 17 10.00 Fair CLR 74.5 50.4 43% 30.16 0.0
03 12:15 SW 12 10.00 Fair CLR 73.8 50.4 44% 30.17 0.0
03 11:55 SW 8 10.00 Fair CLR 72.7 50.5 46% 30.18 0.0
03 11:35 SW 10 10.00 Fair CLR 72.5 51.6 48% 30.19 0.0
03 11:15 SW 9 G 16 10.00 Fair CLR 71.6 50.9 48% 30.2 0.0
03 10:55 SW 9 10.00 Fair CLR 70.5 51.6 51% 30.2 0.0
03 10:35 SW 9 10.00 Fair CLR 69.4 52.3 55% 30.21 0.0
03 10:15 Calm 10.00 Fair CLR 66.2 53.6 64% 30.21 0.0
03 09:55 SW 3 10.00 Fair CLR 64 53.6 69% 30.21 0.0
03 09:35 SW 6 10.00 Fair CLR 62.2 53.1 72% 30.21 0.0
03 09:15 S 3 10.00 Fair CLR 60.3 52 74% 30.21 0.0
03 08:55 Calm 10.00 Fair CLR 58.5 52 79% 30.2 0.0
03 08:35 Calm 10.00 Fair CLR 56.1 51.6 85% 30.2 0.0
03 08:15 Calm 10.00 Fair CLR 53.1 51.1 93% 30.2 0.0
03 07:55 Calm 10.00 Fair CLR 50.2 49.3 97% 30.19 0.0
03 07:35 Calm 10.00 Fair CLR 46.2 46.2 100% 30.19 0.0
03 07:15 Calm 9.00 Fair CLR 44.6 44.6 100% 30.18 0.0
03 06:55 Calm 9.00 Fair CLR 44.8 44.8 100% 30.17 0.0
03 06:35 Calm 10.00 Fair CLR 46.4 46 99% 30.17 0.0
03 06:15 Calm 10.00 Fair CLR 46.6 45.7 97% 30.16 0.0
03 05:55 Calm 10.00 Fair CLR 50 47.8 92% 30.15 0.0
03 05:35 Calm 10.00 Fair CLR 49.5 47.7 94% 30.15 0.0
03 05:15 SE 5 10.00 Fair CLR 48.4 47.7 97% 47 30.15 0.0
03 04:55 SE 5 10.00 Fair CLR 47.1 47.1 100% 46 30.15 0.0
03 04:35 E 3 10.00 Fair CLR 47.8 47.8 100% 30.16 0.0
03 04:15 E 3 10.00 Fair CLR 47.3 47.3 100% 30.15 0.0
03 03:55 E 3 10.00 Fair CLR 47.3 47.3 100% 30.15 0.0
03 03:35 Calm 10.00 Fair CLR 48 48 100% 30.15 0.0
03 03:15 Calm 10.00 Fair CLR 48.4 48.4 100% 30.15 0.0
03 02:55 Calm 10.00 Fair CLR 48.6 48.4 99% 30.15 0.0
03 02:35 Calm 10.00 Fair CLR 48.9 48.6 99% 30.15 0.0
03 02:15 Calm 10.00 Fair CLR 51.4 50 95% 30.16 0.0
03 01:55 Calm 10.00 A Few Clouds FEW160 49.6 49.6 100% 30.16 0.0
03 01:35 Calm 10.00 Mostly Cloudy BKN160 50.2 50.2 100% 30.17 0.0
03 01:15 Calm 10.00 Mostly Cloudy BKN160 50.4 50.4 100% 30.17 0.0
03 00:55 Calm 10.00 Overcast OVC160 50.5 50.4 99% 30.17 0.0
03 00:35 Calm 10.00 Partly Cloudy SCT160 51.8 50.9 97% 30.17 0.0
03 00:15 Calm 10.00 Fair CLR 52 50.5 95% 30.17 0.0
02 23:55 Calm 10.00 Fair CLR 52 51.8 99% 30.17 0.0
02 23:35 Calm 10.00 Fair CLR 53.6 51.8 94% 30.17 0.0
02 23:15 Calm 9.00 Fair CLR 54.1 52.2 93% 30.16 0.0
02 22:55 Calm 10.00 Fair CLR 54.7 51.3 88% 30.16 0.0
02 22:35 Calm 10.00 Fair CLR 57 50.9 80% 30.15 0.0
02 22:15 Calm 9.00 Fair CLR 57.2 52.2 83% 30.15 0.0
02 21:55 SE 3 10.00 Fair CLR 58.8 52.7 80% 30.14 0.0
02 21:35 Calm 7.00 Fair CLR 59.7 52.3 77% 30.14 0.0
02 21:15 Calm 8.00 Fair CLR 61.2 52.3 73% 30.13 0.0
02 20:55 SE 3 9.00 Fair CLR 62.1 52.9 72% 30.12 0.0
02 20:35 S 3 9.00 Fair CLR 64.4 49.6 59% 30.12 0.0
02 20:15 S 5 10.00 Fair CLR 66.6 48.4 52% 30.12 0.0
02 19:55 SE 5 10.00 Fair CLR 68.4 48.2 49% 30.11 0.0
02 19:35 SE 5 10.00 Fair CLR 69.6 48.2 47% 30.11 0.0
02 19:15 Vrbl 3 10.00 Fair CLR 71.1 47.8 44% 30.11 0.0
02 18:55 S 3 10.00 Fair CLR 71.8 46.8 41% 30.11 0.0
02 18:35 Calm 10.00 Fair CLR 72.1 45.7 39% 30.11 0.0
02 18:15 S 3 10.00 Fair CLR 72.3 45.3 38% 30.12 0.0
02 17:55 Calm 10.00 Fair CLR 71.1 44.4 38% 30.12 0.0
02 17:35 E 3 10.00 Partly Cloudy SCT070 71.2 44.2 38% 30.12 0.0
02 17:15 Vrbl 3 10.00 Mostly Cloudy BKN070 72.5 44.1 36% 30.12 0.0
02 16:55 Vrbl 5 10.00 Partly Cloudy SCT070 73.6 46.6 38% 30.12 0.0
02 16:35 Vrbl 5 10.00 Partly Cloudy SCT070 73.2 45.7 38% 30.13 0.0
02 16:15 S 5 10.00 Fair CLR 73 45.5 37% 30.14 0.0
02 15:55 Vrbl 3 10.00 A Few Clouds FEW070 72.5 47.1 41% 30.14 0.0
02 15:35 Vrbl 6 10.00 Partly Cloudy SCT070 72.1 45.7 39% 30.15 0.0
02 15:15 W 3 10.00 A Few Clouds FEW070 71.4 43.7 37% 30.16 0.0
02 14:55 NE 3 10.00 Fair CLR 70.9 43.5 37% 30.16 0.0
02 14:35 Vrbl 6 10.00 A Few Clouds FEW065 72 46.2 40% 30.17 0.0
02 14:15 NE 6 10.00 A Few Clouds FEW065 70.3 45.1 41% 30.17 0.0
02 13:55 Vrbl 5 10.00 A Few Clouds FEW060 70.9 46.4 42% 30.17 0.0
02 13:35 Calm 10.00 A Few Clouds FEW050 70.2 48.7 47% 30.18 0.0
02 13:15 Calm 10.00 Mostly Cloudy BKN050 67.8 48.7 51% 30.19 0.0
02 12:55 Vrbl 7 10.00 A Few Clouds FEW050 67.8 48.9 51% 30.2 0.0
02 12:35 Calm 10.00 Fair CLR 67.6 48.2 50% 30.21 0.0
02 12:15 Calm 10.00 Fair CLR 66.7 48 51% 30.21 0.0
02 11:55 Vrbl 6 10.00 Fair CLR 66.6 50.9 57% 30.22 0.0
02 11:35 W 6 10.00 Fair CLR 66.2 52.3 61% 30.22 0.0
02 11:15 NW 5 10.00 Fair CLR 64.9 52.3 64% 30.22 0.0
02 10:55 NW 7 10.00 Fair CLR 63.5 52.5 68% 30.22 0.0
02 10:35 W 8 10.00 Fair CLR 62.6 52.3 69% 30.22 0.0
02 10:15 NW 8 10.00 Fair CLR 61.9 51.1 68% 30.22 0.0
02 09:55 W 7 10.00 Fair CLR 60.3 49.8 69% 30.22 0.0
02 09:35 Calm 10.00 Fair CLR 57.9 52.3 82% 30.22 0.0
02 09:15 W 3 10.00 Fair CLR 55.2 52.3 90% 30.21 0.0
02 08:55 Calm 10.00 Fair CLR 52.9 51.1 94% 30.21 0.0
02 08:35 Calm 10.00 Fair CLR 51.8 50.9 97% 30.21 0.0
02 08:15 Calm 10.00 Fair CLR 48.7 48.7 100% 30.21 0.0
02 07:55 Calm 10.00 Fair CLR 46.6 46.6 100% 30.2 0.0
02 07:35 Calm 10.00 Fair CLR 44.2 44.2 100% 30.19 0.0
02 07:15 Calm 8.00 Fair CLR 41.9 41.9 100% 30.17 0.0
02 06:55 Calm 10.00 Fair CLR 41.7 41.7 100% 30.16 0.0
02 06:35 Calm 10.00 Fair CLR 42.6 42.6 100% 30.15 0.0
02 06:15 Calm 10.00 Fair CLR 42.4 42.4 100% 30.15 0.0
02 05:55 Calm 9.00 Fair CLR 43.7 43.7 100% 30.14 0.0
02 05:35 Calm 7.00 Fair CLR 44.6 44.6 100% 30.13 0.0
02 05:15 N 3 9.00 Fair CLR 45.1 45.1 100% 30.13 0.0
02 04:55 Calm 10.00 Fair CLR 44.1 44.1 100% 30.12 0.0
02 04:35 Calm 9.00 Fair CLR 44.6 44.6 100% 30.12 0.0
02 04:15 Calm 10.00 Fair CLR 45.1 45.1 100% 30.12 0.0
02 03:55 Calm 10.00 Fair CLR 45 45 100% 30.12 0.0
02 03:35 Calm 10.00 Fair CLR 45 45 100% 30.12 0.0
02 03:15 Calm 10.00 Partly Cloudy SCT120 46 46 100% 30.13 0.0
02 02:55 Calm 10.00 Mostly Cloudy BKN120 45.7 45.7 100% 30.13 0.0
02 02:35 Calm 10.00 Fair CLR 46.2 46.2 100% 30.13 0.0
02 02:15 Calm 10.00 Fair CLR 46.2 46.2 100% 30.13 0.0
02 01:55 Calm 10.00 Partly Cloudy SCT130 46.6 46.6 100% 30.13 0.0
02 01:35 Calm 10.00 Partly Cloudy SCT130 46.6 46.6 100% 30.13 0.0
02 01:15 Calm 9.00 Fair CLR 47.7 47.7 100% 30.13 0.0
02 00:55 Calm 8.00 Fair CLR 46.9 46.9 100% 30.12 0.0
02 00:35 Calm 10.00 Fair CLR 47.1 47.1 100% 30.12 0.0
02 00:15 Calm 10.00 Fair CLR 48.6 48.6 100% 30.12 0.0
01 23:55 Calm 10.00 Fair CLR 48.6 48.6 100% 30.12 0.0
01 23:35 Calm 10.00 Fair CLR 49.5 49.3 99% 30.12 0.0
01 23:15 NW 3 10.00 Fair CLR 50.7 50.5 99% 30.12 0.0
Date Time (cdt) Wind (mph) Vis. (mi.) Weather Sky Cond. Air Dwpt Max. Min. Relative Humidity Wind Chill (°F) Heat Index (°F) altimeter (in) sea level (mb) 1 hr 3 hr 6 hr
6 hour
Temperature (ºF) Pressure Precipitation (in)